Time;durP1;ratioP1;P1;durP2;ratioP2;P2;SDS_P1;SDS_P2;PMS_P1;PMS_P2;Temp;Humidity;BMP_temperature;BMP_pressure;BME280_temperature;BME280_humidity;BME280_pressure;Samples;Min_cycle;Max_cycle;Signal;HPM_P1;HPM_P2
2021/10/01 00:02:29;;;;;;;4.43;1.90;;;;;;;10.82;82.75;101703.16;10465282;28;20115;-81
2021/10/01 00:07:31;;;;;;;8.02;2.40;;;;;;;10.82;82.75;101692.81;10461460;28;20056;-81
2021/10/01 00:12:33;;;;;;;6.55;1.80;;;;;;;10.82;82.57;101689.34;10492704;28;20047;-79
2021/10/01 00:17:35;;;;;;;7.10;2.28;;;;;;;10.85;83.02;101684.25;10482638;28;20048;-81
2021/10/01 00:22:38;;;;;;;5.90;2.50;;;;;;;10.92;82.16;101682.72;10486209;28;20501;-77
2021/10/01 00:27:39;;;;;;;5.20;2.20;;;;;;;10.93;82.84;101682.75;10465871;28;20131;-81
2021/10/01 00:32:41;;;;;;;8.38;2.38;;;;;;;10.93;82.58;101672.38;10484756;28;20060;-81
2021/10/01 00:37:42;;;;;;;4.75;2.20;;;;;;;10.98;82.86;101669.94;10468697;28;20060;-81
2021/10/01 00:42:44;;;;;;;4.25;1.77;;;;;;;11.01;82.21;101667.44;10469023;28;20064;-81
2021/10/01 00:47:45;;;;;;;3.08;1.73;;;;;;;11.08;81.59;101658.97;10479491;28;20048;-77
2021/10/01 00:52:48;;;;;;;12.10;2.20;;;;;;;11.06;81.36;101658.03;10454770;28;20060;-79
2021/10/01 00:57:50;;;;;;;5.35;1.67;;;;;;;11.06;81.79;101648.59;10459864;28;20055;-80
2021/10/01 01:02:53;;;;;;;2.78;1.45;;;;;;;11.05;81.99;101643.34;10462832;28;20091;-80
2021/10/01 01:08:02;;;;;;;7.82;2.15;;;;;;;11.03;82.20;101639.84;10474799;28;20048;-81
2021/10/01 01:13:48;;;;;;;9.68;1.85;;;;;;;11.13;81.23;101637.53;10474285;28;20501;-81
2021/10/01 01:18:52;;;;;;;5.05;1.58;;;;;;;11.04;82.19;101632.13;10465585;28;20063;-80
2021/10/01 01:24:24;;;;;;;2.80;1.27;;;;;;;11.04;81.78;101629.53;10461507;28;20501;-80
2021/10/01 01:29:52;;;;;;;3.50;1.63;;;;;;;11.08;81.17;101627.91;10459399;28;20052;-81
2021/10/01 01:34:58;;;;;;;5.80;1.75;;;;;;;11.07;81.13;101615.81;10474771;28;20095;-79
2021/10/01 01:40:03;;;;;;;2.45;1.65;;;;;;;11.06;80.79;101604.56;10487090;28;20052;-77
2021/10/01 01:45:05;;;;;;;4.93;1.98;;;;;;;11.17;79.58;101606.53;10459886;28;20106;-79
2021/10/01 01:50:08;;;;;;;2.03;1.40;;;;;;;11.10;80.88;101602.91;10470683;28;20060;-81
2021/10/01 01:55:12;;;;;;;3.97;1.30;;;;;;;11.15;80.31;101596.13;10463740;28;20095;-81
2021/10/01 02:00:14;;;;;;;2.78;0.95;;;;;;;11.15;80.35;101593.56;10483684;28;20048;-82
2021/10/01 02:05:16;;;;;;;4.80;1.20;;;;;;;11.16;79.59;101584.94;10477768;28;20135;-81
2021/10/01 02:10:18;;;;;;;2.63;1.40;;;;;;;11.08;80.64;101583.88;10473675;28;20060;-80
2021/10/01 02:15:22;;;;;;;4.18;1.05;;;;;;;11.04;81.47;101588.09;10475692;28;20071;-82
2021/10/01 02:20:25;;;;;;;4.25;1.25;;;;;;;11.08;81.55;101583.88;10482574;28;20072;-81
2021/10/01 02:30:50;;;;;;;3.80;1.50;;;;;;;11.02;81.99;101550.94;10473484;28;20071;-82
2021/10/01 02:35:52;;;;;;;6.28;1.55;;;;;;;11.03;81.65;101555.28;10482292;28;20048;-79
2021/10/01 02:40:54;;;;;;;2.15;1.20;;;;;;;10.99;83.00;101550.84;10458546;28;20473;-80
2021/10/01 02:45:55;;;;;;;4.18;1.50;;;;;;;11.06;81.20;101536.34;10485600;28;20044;-80
2021/10/01 02:51:05;;;;;;;2.33;1.02;;;;;;;11.04;81.69;101523.38;10472109;28;20049;-80
2021/10/01 02:56:22;;;;;;;3.28;1.50;;;;;;;11.06;81.41;101524.31;10479885;28;20519;-79
2021/10/01 03:01:26;;;;;;;9.45;1.50;;;;;;;11.09;81.26;101515.72;10464249;28;20048;-82
2021/10/01 03:06:32;;;;;;;4.43;1.08;;;;;;;11.19;80.57;101502.16;10478588;28;20060;-80
2021/10/01 03:11:35;;;;;;;4.40;1.67;;;;;;;11.22;80.26;101497.03;10470798;28;20041;-80
2021/10/01 03:16:38;;;;;;;5.88;1.20;;;;;;;11.16;80.34;101491.69;10474280;28;20511;-81
2021/10/01 03:21:41;;;;;;;4.93;1.40;;;;;;;11.12;80.26;101493.38;10457422;28;20041;-81
2021/10/01 03:26:43;;;;;;;3.88;1.23;;;;;;;11.09;80.95;101493.28;10469319;28;20409;-80
2021/10/01 03:31:48;;;;;;;4.57;1.27;;;;;;;11.15;79.67;101489.97;10456603;28;20049;-80
2021/10/01 03:36:50;;;;;;;5.22;1.95;;;;;;;11.04;80.37;101484.53;10475224;28;20054;-81
2021/10/01 03:41:52;;;;;;;3.97;1.40;;;;;;;11.03;81.07;101474.16;10479505;28;20049;-80
2021/10/01 03:46:53;;;;;;;4.50;1.42;;;;;;;11.11;79.55;101460.53;10488493;28;20075;-77
2021/10/01 03:51:57;;;;;;;2.70;1.10;;;;;;;11.20;79.38;101459.88;10463574;28;20053;-81
2021/10/01 03:56:59;;;;;;;2.78;1.20;;;;;;;11.12;80.06;101451.94;10467819;28;20497;-79
2021/10/01 04:02:00;;;;;;;5.20;1.10;;;;;;;11.11;79.08;101438.94;10469175;28;20044;-83
2021/10/01 04:07:02;;;;;;;5.65;1.67;;;;;;;11.12;78.89;101435.53;10455876;28;20056;-79
2021/10/01 04:12:04;;;;;;;4.97;1.67;;;;;;;11.09;78.81;101425.97;10484421;28;20488;-82
2021/10/01 04:17:06;;;;;;;3.30;1.40;;;;;;;11.03;79.22;101414.59;10484065;28;20060;-82
2021/10/01 04:22:07;;;;;;;5.57;1.50;;;;;;;10.98;79.50;101423.97;10470392;28;20053;-83
2021/10/01 04:27:10;;;;;;;3.47;1.30;;;;;;;10.88;80.13;101409.94;10461818;28;20053;-79
2021/10/01 04:32:11;;;;;;;4.32;1.50;;;;;;;10.81;80.22;101403.75;10489887;28;20045;-82
2021/10/01 04:37:14;;;;;;;4.60;1.55;;;;;;;10.69;81.28;101415.53;10452492;28;20056;-81
2021/10/01 04:42:15;;;;;;;3.20;1.33;;;;;;;10.64;81.43;101409.38;10468339;28;20094;-80
2021/10/01 04:47:17;;;;;;;5.20;1.35;;;;;;;10.61;81.30;101402.44;10481337;28;20057;-81
2021/10/01 04:52:18;;;;;;;4.03;1.50;;;;;;;10.48;81.86;101396.06;10469569;28;20053;-80
2021/10/01 04:57:20;;;;;;;5.45;1.45;;;;;;;10.49;81.81;101397.81;10463455;28;20064;-83
2021/10/01 05:02:21;;;;;;;3.28;1.45;;;;;;;10.50;81.54;101390.97;10477070;28;20049;-78
2021/10/01 05:07:24;;;;;;;4.82;1.38;;;;;;;10.48;81.60;101392.63;10476349;28;20051;-81
2021/10/01 05:12:25;;;;;;;5.88;1.20;;;;;;;10.49;81.17;101389.19;10460987;28;20056;-80
2021/10/01 05:17:27;;;;;;;6.32;1.75;;;;;;;10.50;80.85;101390.97;10462259;28;20049;-80
2021/10/01 05:22:29;;;;;;;4.65;1.50;;;;;;;10.40;81.02;101382.09;10474568;28;20132;-81
2021/10/01 05:27:30;;;;;;;4.80;1.40;;;;;;;10.33;82.03;101388.84;10472080;28;20045;-82
2021/10/01 05:32:33;;;;;;;2.00;1.23;;;;;;;10.39;81.07;101371.72;10460327;28;20040;-81
2021/10/01 05:37:34;;;;;;;2.40;1.38;;;;;;;10.51;80.12;101387.53;10461584;28;20056;-83
2021/10/01 05:42:36;;;;;;;3.20;1.38;;;;;;;10.69;79.30;101381.91;10474578;28;20041;-87
2021/10/01 05:47:38;;;;;;;5.13;1.23;;;;;;;10.73;78.56;101388.91;10487315;28;20051;-80
2021/10/01 05:52:51;;;;;;;4.00;1.40;;;;;;;10.75;78.53;101393.25;10494189;28;20056;-82
2021/10/01 05:57:53;;;;;;;3.95;1.73;;;;;;;10.87;77.94;101393.53;10487499;28;20053;-82
2021/10/01 06:02:55;;;;;;;4.63;1.50;;;;;;;10.95;77.16;101385.97;10464084;28;20045;-82
2021/10/01 06:07:57;;;;;;;1.95;1.48;;;;;;;10.92;77.62;101380.69;10455744;28;20091;-81
2021/10/01 06:12:58;;;;;;;5.03;1.00;;;;;;;11.06;76.87;101381.00;10457742;28;20049;-82
2021/10/01 06:18:00;;;;;;;2.70;1.25;;;;;;;11.16;76.02;101388.13;10477431;28;20075;-81
2021/10/01 06:23:01;;;;;;;8.95;1.45;;;;;;;11.19;75.77;101385.59;10493407;28;20048;-82
2021/10/01 06:28:03;;;;;;;3.28;1.15;;;;;;;11.26;75.38;101384.00;10465142;28;20048;-81
2021/10/01 06:33:05;;;;;;;4.22;1.13;;;;;;;11.22;75.96;101393.41;10453743;28;20045;-79
2021/10/01 06:38:07;;;;;;;2.92;1.35;;;;;;;11.21;75.93;101381.31;10470180;28;20052;-83
2021/10/01 06:43:10;;;;;;;2.78;1.30;;;;;;;11.24;76.29;101373.63;10456059;28;20049;-83
2021/10/01 06:48:20;;;;;;;5.18;1.55;;;;;;;11.26;77.05;101376.25;10458799;28;20049;-84
2021/10/01 08:23:29;;;;;;;4.18;1.08;;;;;;;12.54;74.67;101373.41;10478600;28;20051;-85
2021/10/01 08:28:30;;;;;;;2.40;1.30;;;;;;;12.49;74.53;101367.28;10471147;28;20051;-86
2021/10/01 08:33:33;;;;;;;3.45;1.50;;;;;;;12.30;78.37;101354.84;10459776;28;20142;-81
2021/10/01 08:38:37;;;;;;;3.35;1.15;;;;;;;12.39;78.61;101363.66;10462463;28;20056;-83
2021/10/01 08:43:44;;;;;;;4.43;1.67;;;;;;;12.57;76.35;101346.59;10471805;28;20053;-82
2021/10/01 08:48:48;;;;;;;8.52;1.70;;;;;;;12.70;76.58;101351.97;10501822;28;20044;-87
2021/10/01 08:53:52;;;;;;;2.80;1.45;;;;;;;13.02;76.35;101340.31;10462195;28;20516;-86
2021/10/01 08:58:55;;;;;;;3.70;1.83;;;;;;;13.40;75.19;101326.09;10500642;28;20519;-85
2021/10/01 09:03:56;;;;;;;5.22;1.58;;;;;;;13.68;72.78;101321.19;10534649;28;20052;-85
2021/10/01 09:09:04;;;;;;;5.22;1.70;;;;;;;13.60;73.79;101321.06;10500523;28;20511;-82
2021/10/01 09:14:08;;;;;;;5.05;1.60;;;;;;;13.53;75.91;101317.53;10480126;28;20053;-82
2021/10/01 09:19:11;;;;;;;3.25;1.77;;;;;;;13.50;74.14;101329.63;10460288;28;20052;-84
2021/10/01 09:24:17;;;;;;;6.13;1.55;;;;;;;13.18;77.45;101324.94;10481900;28;20055;-80
2021/10/01 09:29:23;;;;;;;;;;;;;;;13.09;79.85;101335.19;10462527;28;20056;-85
2021/10/01 09:34:25;;;;;;;3.93;1.40;;;;;;;13.05;80.51;101328.25;10486686;28;19921;-81
2021/10/01 09:39:30;;;;;;;19.58;2.58;;;;;;;13.04;81.00;101325.59;10464366;28;20087;-82
2021/10/01 09:44:32;;;;;;;3.95;1.55;;;;;;;13.09;81.82;101326.53;10471707;28;20056;-79
2021/10/01 09:49:34;;;;;;;4.32;1.45;;;;;;;13.13;81.18;101317.94;10466031;28;20102;-81
2021/10/01 09:54:38;;;;;;;8.90;1.77;;;;;;;13.02;81.47;101315.19;10465325;28;20048;-81
2021/10/01 09:59:40;;;;;;;3.15;1.52;;;;;;;12.95;82.65;101314.25;10499391;28;20057;-80
2021/10/01 10:04:55;;;;;;;3.33;1.90;;;;;;;12.96;83.02;101309.94;10488575;28;20048;-81
2021/10/01 10:10:04;;;;;;;10.63;1.85;;;;;;;13.10;83.65;101292.78;10485116;28;20055;-83
2021/10/01 10:15:12;;;;;;;2.35;1.60;;;;;;;13.22;83.03;101285.19;10483966;28;20053;-81
2021/10/01 10:20:15;;;;;;;4.28;1.63;;;;;;;13.52;82.21;101281.16;10474151;28;20492;-80
2021/10/01 10:25:16;;;;;;;3.95;2.00;;;;;;;13.77;79.94;101275.31;10493349;28;20048;-82
2021/10/01 10:30:20;;;;;;;5.32;1.65;;;;;;;14.00;78.26;101269.41;10440454;28;20053;-79
2021/10/01 10:35:39;;;;;;;4.40;1.85;;;;;;;14.37;76.59;101256.66;10464215;28;20409;-82
2021/10/01 10:40:41;;;;;;;5.03;1.45;;;;;;;15.00;73.03;101250.91;10496777;28;20044;-80
2021/10/01 10:45:42;;;;;;;6.28;1.60;;;;;;;15.26;73.17;101240.56;10499189;28;20056;-82
2021/10/01 10:50:55;;;;;;;5.97;1.88;;;;;;;15.51;69.38;101225.81;10483535;28;20049;-80
2021/10/01 10:56:04;;;;;;;3.13;1.13;;;;;;;15.72;68.41;101231.94;10497678;28;20053;-82
2021/10/01 11:01:13;;;;;;;4.38;1.70;;;;;;;15.69;69.81;101247.59;10476603;28;20053;-83
2021/10/01 11:06:20;;;;;;;7.03;1.52;;;;;;;15.47;68.12;101231.88;10449565;28;20072;-82
2021/10/01 11:11:32;;;;;;;6.38;1.45;;;;;;;15.42;67.85;101233.59;10454727;28;20048;-81
2021/10/01 11:16:33;;;;;;;7.70;1.63;;;;;;;15.42;67.60;101219.69;10455259;28;20057;-81
2021/10/01 11:21:43;;;;;;;3.58;1.35;;;;;;;15.81;67.51;101217.13;10497443;28;20097;-82
2021/10/01 11:26:54;;;;;;;2.47;1.33;;;;;;;16.03;66.62;101212.75;10478980;28;20056;-81
2021/10/01 11:32:20;;;;;;;3.00;1.45;;;;;;;15.72;66.03;101204.13;10454288;28;20489;-79
2021/10/01 11:37:32;;;;;;;;;;;;;;;15.55;66.90;101200.59;10455638;28;20132;-84
2021/10/01 11:42:39;;;;;;;2.25;1.77;;;;;;;15.49;66.83;101204.09;10455229;28;19920;-85
2021/10/01 11:47:50;;;;;;;3.60;1.40;;;;;;;15.81;68.30;101193.66;10453588;28;20052;-85
2021/10/01 11:52:53;;;;;;;7.43;1.52;;;;;;;15.83;66.18;101191.94;10443372;28;20057;-84
2021/10/01 11:57:57;;;;;;;6.18;1.77;;;;;;;15.99;65.57;101184.91;10454821;28;20057;-85
2021/10/01 12:02:59;;;;;;;2.20;1.23;;;;;;;15.84;65.56;101187.59;10437828;28;20060;-84
2021/10/01 12:08:04;;;;;;;4.70;1.10;;;;;;;16.00;66.31;101184.06;10453831;28;20053;-80
2021/10/01 12:13:09;;;;;;;3.70;1.13;;;;;;;16.47;66.69;101172.63;10453740;28;20060;-85
2021/10/01 12:18:41;;;;;;;5.13;1.42;;;;;;;16.17;66.36;101171.00;10453192;28;20049;-83
2021/10/01 12:23:59;;;;;;;4.97;1.50;;;;;;;16.06;66.21;101162.31;10458816;28;20056;-82
2021/10/01 12:29:00;;;;;;;5.90;1.75;;;;;;;16.23;66.39;101150.06;10458892;28;20049;-83
2021/10/01 12:34:06;;;;;;;2.42;1.63;;;;;;;16.23;63.88;101151.81;10490490;28;20083;-84
2021/10/01 12:39:08;;;;;;;2.75;1.27;;;;;;;16.35;61.99;101150.03;10494854;28;20056;-80
2021/10/01 12:44:14;;;;;;;3.88;1.10;;;;;;;16.53;61.03;101137.75;10480835;28;20049;-81
2021/10/01 12:49:30;;;;;;;2.30;0.82;;;;;;;16.55;60.92;101146.44;10451686;28;20048;-84
2021/10/01 12:54:33;;;;;;;;;;;;;;;16.58;62.27;101147.31;10435639;28;20053;-79
2021/10/01 12:59:53;;;;;;;2.83;0.93;;;;;;;16.33;61.48;101150.88;10452102;28;20411;-80
2021/10/01 13:05:02;;;;;;;6.35;1.63;;;;;;;16.25;61.78;101153.53;10460753;28;20061;-82
2021/10/01 13:10:18;;;;;;;5.65;1.33;;;;;;;16.27;61.62;101150.91;10459883;28;20519;-82
2021/10/01 13:15:31;;;;;;;5.13;1.53;;;;;;;16.22;61.83;101150.94;10501139;28;20058;-78
2021/10/01 13:20:36;;;;;;;3.42;1.17;;;;;;;16.17;62.25;101147.50;10482690;28;20053;-82
2021/10/01 13:25:49;;;;;;;2.85;1.10;;;;;;;16.13;61.89;101138.78;10459769;28;20068;-83
2021/10/01 13:30:51;;;;;;;4.00;1.38;;;;;;;16.25;62.55;101142.22;10461124;28;20107;-86
2021/10/01 13:35:55;;;;;;;8.40;2.45;;;;;;;16.31;62.35;101134.38;10460386;28;20059;-84
2021/10/01 13:40:58;;;;;;;6.95;1.65;;;;;;;16.28;63.97;101142.19;10460482;28;20053;-84
2021/10/01 13:46:00;;;;;;;3.47;1.50;;;;;;;16.16;63.47;101136.16;10500090;28;20059;-82
2021/10/01 13:51:03;;;;;;;5.20;1.30;;;;;;;16.10;62.44;101141.41;10482402;28;20045;-83
2021/10/01 13:56:05;;;;;;;8.65;1.20;;;;;;;16.06;61.90;101118.81;10464008;28;20102;-84
2021/10/01 14:01:07;;;;;;;6.93;1.58;;;;;;;16.01;62.49;101125.78;10491049;28;20049;-82
2021/10/01 14:06:08;;;;;;;9.52;2.25;;;;;;;15.98;62.22;101117.94;10465172;28;20148;-80
2021/10/01 14:11:10;;;;;;;6.75;1.50;;;;;;;16.00;62.59;101112.75;10457536;28;20052;-80
2021/10/01 14:16:12;;;;;;;3.20;1.27;;;;;;;15.94;64.19;101108.41;10457927;28;20060;-82
2021/10/01 14:21:13;;;;;;;3.53;1.13;;;;;;;16.00;64.17;101108.41;10495296;28;20117;-83
2021/10/01 14:26:15;;;;;;;3.83;0.88;;;;;;;15.95;63.82;101101.44;10473535;28;20060;-83
2021/10/01 14:31:16;;;;;;;10.07;1.70;;;;;;;15.93;64.02;101084.91;10485660;28;20048;-79
2021/10/01 14:36:18;;;;;;;4.38;1.27;;;;;;;15.91;64.57;101074.47;10470583;28;20088;-79
2021/10/01 14:41:19;;;;;;;4.47;1.35;;;;;;;15.95;64.98;101073.59;10456502;28;20048;-81
2021/10/01 14:46:21;;;;;;;4.32;1.40;;;;;;;15.89;66.04;101063.19;10488327;28;20496;-80
2021/10/01 14:51:23;;;;;;;4.47;1.88;;;;;;;15.85;66.10;101064.94;10477280;28;20052;-84
2021/10/01 14:56:24;;;;;;;7.68;2.83;;;;;;;15.83;66.48;101055.38;10496983;28;20049;-82
2021/10/01 15:01:27;;;;;;;2.25;1.35;;;;;;;15.84;66.89;101055.38;10477219;28;20485;-81
2021/10/01 15:06:29;;;;;;;8.13;1.40;;;;;;;15.82;68.00;101044.06;10492364;28;20056;-80
2021/10/01 15:11:31;;;;;;;4.68;1.33;;;;;;;15.77;67.91;101044.94;10485837;28;20045;-84
2021/10/01 15:16:33;;;;;;;4.47;1.23;;;;;;;15.88;65.91;101044.06;10455530;28;20526;-83
2021/10/01 15:21:34;;;;;;;1.80;0.93;;;;;;;15.82;67.07;101040.59;10455008;28;20094;-79
2021/10/01 15:26:36;;;;;;;2.08;1.00;;;;;;;15.86;64.04;101040.56;10456048;28;20063;-80
2021/10/01 15:31:38;;;;;;;11.90;1.60;;;;;;;15.86;63.73;101040.56;10455127;28;20064;-80
2021/10/01 15:36:39;;;;;;;6.53;1.48;;;;;;;15.69;66.26;101047.59;10454234;28;20063;-81
2021/10/01 15:41:40;;;;;;;5.88;1.77;;;;;;;15.52;68.02;101049.34;10454342;28;20123;-82
2021/10/01 15:46:42;;;;;;;3.53;1.88;;;;;;;15.53;66.96;101049.34;10461869;28;20067;-82
2021/10/01 15:51:43;;;;;;;5.85;2.33;;;;;;;15.54;66.94;101042.38;10474734;28;20493;-80
2021/10/01 15:56:46;;;;;;;8.65;3.65;;;;;;;15.43;68.15;101042.44;10454155;28;20061;-78
2021/10/01 16:01:47;;;;;;;3.47;1.70;;;;;;;15.39;68.81;101045.91;10450421;28;20052;-79
2021/10/01 16:06:49;;;;;;;6.95;2.60;;;;;;;15.18;74.25;101058.94;10467228;28;20052;-83
2021/10/01 16:11:51;;;;;;;2.30;1.17;;;;;;;14.93;75.01;101055.50;10464579;28;20052;-81
2021/10/01 16:16:52;;;;;;;6.80;1.80;;;;;;;14.79;77.82;101053.72;10439712;28;20053;-83
2021/10/01 16:21:54;;;;;;;5.07;2.38;;;;;;;14.69;79.95;101048.50;10455971;28;20132;-79
2021/10/01 16:26:55;;;;;;;4.95;1.92;;;;;;;14.55;81.43;101064.97;10461302;28;20049;-80
2021/10/01 16:31:57;;;;;;;4.40;1.95;;;;;;;14.34;82.93;101059.69;10454310;28;20049;-82
2021/10/01 16:36:59;;;;;;;3.42;1.75;;;;;;;14.25;83.65;101052.75;10459879;28;20071;-80
2021/10/01 16:42:00;;;;;;;6.85;2.53;;;;;;;14.25;83.05;101055.34;10471378;28;20048;-81
2021/10/01 16:47:02;;;;;;;4.65;2.65;;;;;;;14.02;86.08;101075.22;10470393;28;20131;-80
2021/10/01 16:52:04;;;;;;;4.80;2.10;;;;;;;13.73;89.08;101062.06;10461021;28;20059;-82
2021/10/01 16:57:06;;;;;;;4.95;1.92;;;;;;;13.75;91.09;101047.31;10460348;28;20416;-81
2021/10/01 17:02:08;;;;;;;7.65;3.17;;;;;;;13.65;92.89;101054.19;10468424;28;20091;-81
2021/10/01 17:07:10;;;;;;;6.68;2.45;;;;;;;13.61;93.96;101062.84;10479800;28;20403;-81
2021/10/01 17:12:11;;;;;;;6.18;1.95;;;;;;;13.65;89.82;101072.41;10479337;28;20488;-80
2021/10/01 17:17:13;;;;;;;8.90;2.45;;;;;;;13.51;92.67;101071.47;10484291;28;20053;-79
2021/10/01 17:22:14;;;;;;;6.13;2.30;;;;;;;13.37;94.50;101076.53;10481251;28;20369;-81
2021/10/01 17:27:16;;;;;;;6.88;2.13;;;;;;;13.23;93.94;101084.25;10465966;28;20045;-82
2021/10/01 17:32:18;;;;;;;5.72;2.78;;;;;;;13.08;96.31;101088.41;10475751;28;20045;-84
2021/10/01 17:37:21;;;;;;;7.22;1.80;;;;;;;12.85;98.61;101093.41;10480662;28;20049;-83
2021/10/01 17:42:32;;;;;;;7.90;2.90;;;;;;;12.71;100.00;101088.09;10496119;28;20080;-85
2021/10/01 17:47:41;;;;;;;4.88;2.08;;;;;;;12.59;100.00;101085.34;10479984;28;20052;-81
2021/10/01 17:52:43;;;;;;;2.92;2.33;;;;;;;12.62;100.00;101085.38;10485330;28;20076;-84
2021/10/01 17:57:45;;;;;;;8.50;2.17;;;;;;;12.54;100.00;101085.31;10467358;28;20144;-86
2021/10/01 18:02:46;;;;;;;3.40;2.38;;;;;;;12.53;100.00;101080.97;10474501;28;20102;-83
2021/10/01 18:07:48;;;;;;;7.28;1.95;;;;;;;12.50;100.00;101088.72;10458348;28;20087;-82
2021/10/01 18:12:53;;;;;;;3.20;2.00;;;;;;;12.53;100.00;101085.28;10467555;28;20052;-81
2021/10/01 18:17:59;;;;;;;4.18;2.28;;;;;;;12.46;100.00;101082.63;10474404;28;20053;-81
2021/10/01 18:23:01;;;;;;;;;;;;;;;12.44;100.00;101079.16;10474900;28;20084;-82
2021/10/01 18:28:04;;;;;;;5.97;1.98;;;;;;;12.40;100.00;101073.91;10471361;28;20347;-81
2021/10/01 18:33:05;;;;;;;4.38;2.45;;;;;;;12.37;100.00;101073.88;10470401;28;20439;-81
2021/10/01 18:38:17;;;;;;;5.88;2.88;;;;;;;12.38;100.00;101066.13;10472070;28;20053;-82
2021/10/01 18:43:21;;;;;;;5.28;2.10;;;;;;;12.35;100.00;101070.38;10468589;28;20417;-82
2021/10/01 18:48:23;;;;;;;7.95;2.20;;;;;;;12.31;100.00;101069.50;10474390;28;20049;-82
2021/10/01 18:53:26;;;;;;;7.65;2.80;;;;;;;12.32;100.00;101078.16;10472813;28;20044;-81
2021/10/01 18:58:28;;;;;;;5.85;2.90;;;;;;;12.30;100.00;101075.53;10461309;28;20109;-83
2021/10/01 19:03:31;;;;;;;5.30;2.65;;;;;;;12.31;100.00;101071.19;10474402;28;20052;-83
2021/10/01 19:08:35;;;;;;;5.65;2.63;;;;;;;12.24;100.00;101077.19;10474375;28;20055;-84
2021/10/01 19:13:44;;;;;;;8.32;3.72;;;;;;;12.23;100.00;101065.94;10478387;28;20052;-84
2021/10/01 19:18:47;;;;;;;5.80;3.10;;;;;;;12.15;100.00;101065.00;10478309;28;20060;-84
2021/10/01 19:24:28;;;;;;;6.55;3.25;;;;;;;12.09;100.00;101063.19;10470442;28;20131;-82
2021/10/01 19:30:23;;;;;;;4.68;2.45;;;;;;;12.11;100.00;101063.19;10465698;28;20058;-86
2021/10/01 19:35:06;;;;;;;;;;;;;;;12.09;100.00;101059.72;10455365;28;20501;-84
2021/10/01 19:40:08;;;;;;;6.25;2.60;;;;;;;12.07;100.00;101072.66;10472623;28;19924;-84
2021/10/01 19:45:13;;;;;;;5.10;2.90;;;;;;;12.02;100.00;101071.72;10478341;28;20056;-85
2021/10/01 19:50:15;;;;;;;4.22;2.88;;;;;;;12.03;100.00;101064.84;10469208;28;20107;-83
2021/10/01 19:55:19;;;;;;;5.60;3.05;;;;;;;12.09;100.00;101075.28;10468939;28;20086;-87
2021/10/01 20:00:26;;;;;;;6.90;3.20;;;;;;;12.06;100.00;101070.06;10457861;28;20063;-82
2021/10/01 20:05:27;;;;;;;5.63;2.85;;;;;;;12.08;100.00;101077.00;10484096;28;20056;-82
2021/10/01 20:10:29;;;;;;;3.78;2.88;;;;;;;12.12;100.00;101075.31;10467814;28;20064;-82
2021/10/01 20:15:31;;;;;;;7.03;3.13;;;;;;;12.13;100.00;101071.84;10486422;28;20056;-84
2021/10/01 20:46:53;;;;;;;9.57;4.13;;;;;;;12.07;100.00;101053.63;10469359;28;20049;-81
2021/10/01 20:51:55;;;;;;;11.55;3.60;;;;;;;12.14;100.00;101048.56;10481071;28;20044;-80
2021/10/01 20:57:05;;;;;;;4.85;3.33;;;;;;;12.17;100.00;101043.38;10481940;28;20061;-81
2021/10/01 21:02:38;;;;;;;4.47;4.07;;;;;;;12.19;100.00;101044.25;10441900;28;20087;-82
2021/10/01 21:40:06;;;;;;;7.97;4.18;;;;;;;12.37;100.00;101050.53;10475235;28;20067;-83
2021/10/01 21:45:11;;;;;;;4.72;3.63;;;;;;;12.41;100.00;101044.50;10467664;28;20057;-84
2021/10/01 21:50:16;;;;;;;5.70;4.03;;;;;;;12.42;100.00;101035.88;10469724;28;20053;-79
2021/10/01 21:55:18;;;;;;;6.43;4.05;;;;;;;12.44;100.00;101049.75;10460883;28;20136;-78
2021/10/01 22:00:41;;;;;;;5.38;4.15;;;;;;;12.41;100.00;101050.56;10476846;28;20148;-78
2021/10/01 22:21:21;;;;;;;;;;;;;;;12.44;100.00;101050.59;10467211;28;20049;-76
2021/10/01 22:26:23;;;;;;;4.95;3.80;;;;;;;12.42;100.00;101047.16;10459337;28;19929;-77
2021/10/01 22:31:26;;;;;;;5.88;4.30;;;;;;;12.43;100.00;101038.50;10457619;28;20056;-77
2021/10/01 22:36:27;;;;;;;5.78;3.67;;;;;;;12.44;100.00;101031.59;10458723;28;20477;-77
2021/10/01 22:41:31;;;;;;;6.45;4.03;;;;;;;12.49;100.00;101040.28;10462095;28;20055;-76
2021/10/01 22:46:34;;;;;;;12.10;4.32;;;;;;;12.52;100.00;101044.63;10460702;28;20048;-77
2021/10/01 22:51:36;;;;;;;8.05;4.43;;;;;;;12.46;100.00;101048.88;10474908;28;20056;-77
2021/10/01 22:56:37;;;;;;;5.43;4.63;;;;;;;12.46;100.00;101048.03;10476944;28;20049;-77
2021/10/01 23:01:39;;;;;;;8.05;5.15;;;;;;;12.45;100.00;101039.38;10456497;28;20045;-76
2021/10/01 23:06:41;;;;;;;9.30;5.55;;;;;;;12.49;100.00;101035.09;10457789;28;20045;-76
2021/10/01 23:11:49;;;;;;;5.80;5.20;;;;;;;12.49;100.00;101035.09;10456777;28;20041;-76
2021/10/01 23:17:06;;;;;;;8.13;5.80;;;;;;;12.49;100.00;101021.25;10458907;28;20052;-76
2021/10/01 23:43:54;;;;;;;8.88;7.28;;;;;;;12.55;100.00;101032.56;10475803;28;20135;-77
2021/10/01 23:54:40;;;;;;;8.43;6.45;;;;;;;12.57;100.00;101024.78;10484451;28;20049;-77
